sensor_id;sensor_type;location;lat;lon;timestamp;temperature;humidity
9998;DHT22;5038;53.064;8.624;2022-09-09T00:00:14;15.80;99.90
9998;DHT22;5038;53.064;8.624;2022-09-09T00:02:49;15.80;99.90
9998;DHT22;5038;53.064;8.624;2022-09-09T00:05:29;15.80;99.90
9998;DHT22;5038;53.064;8.624;2022-09-09T00:08:02;15.70;99.90
9998;DHT22;5038;53.064;8.624;2022-09-09T00:10:33;15.70;99.90
9998;DHT22;5038;53.064;8.624;2022-09-09T00:13:15;15.70;99.90
9998;DHT22;5038;53.064;8.624;2022-09-09T00:15:50;15.70;99.90
9998;DHT22;5038;53.064;8.624;2022-09-09T00:18:27;15.70;99.90
9998;DHT22;5038;53.064;8.624;2022-09-09T00:21:01;15.60;99.90
9998;DHT22;5038;53.064;8.624;2022-09-09T00:23:35;15.60;99.90
9998;DHT22;5038;53.064;8.624;2022-09-09T00:26:09;15.60;99.90
9998;DHT22;5038;53.064;8.624;2022-09-09T00:28:44;15.60;99.90
9998;DHT22;5038;53.064;8.624;2022-09-09T00:31:16;15.50;99.90
9998;DHT22;5038;53.064;8.624;2022-09-09T00:33:46;15.60;99.90
9998;DHT22;5038;53.064;8.624;2022-09-09T00:36:18;15.50;99.90
9998;DHT22;5038;53.064;8.624;2022-09-09T00:38:51;15.50;99.90
9998;DHT22;5038;53.064;8.624;2022-09-09T00:41:25;15.50;99.90
9998;DHT22;5038;53.064;8.624;2022-09-09T00:44:00;15.50;99.90
9998;DHT22;5038;53.064;8.624;2022-09-09T00:46:41;15.40;99.90
9998;DHT22;5038;53.064;8.624;2022-09-09T00:49:24;15.40;99.90
9998;DHT22;5038;53.064;8.624;2022-09-09T00:52:02;15.40;99.90
9998;DHT22;5038;53.064;8.624;2022-09-09T00:54:40;15.40;99.90
9998;DHT22;5038;53.064;8.624;2022-09-09T00:57:22;15.30;99.90
9998;DHT22;5038;53.064;8.624;2022-09-09T00:59:57;15.30;99.90
9998;DHT22;5038;53.064;8.624;2022-09-09T01:02:28;15.30;99.90
9998;DHT22;5038;53.064;8.624;2022-09-09T01:05:02;15.30;99.90
9998;DHT22;5038;53.064;8.624;2022-09-09T01:07:33;15.30;99.90
9998;DHT22;5038;53.064;8.624;2022-09-09T01:10:04;15.30;99.90
9998;DHT22;5038;53.064;8.624;2022-09-09T01:12:40;15.30;99.90
9998;DHT22;5038;53.064;8.624;2022-09-09T01:15:21;15.30;99.90
9998;DHT22;5038;53.064;8.624;2022-09-09T01:17:58;15.20;99.90
9998;DHT22;5038;53.064;8.624;2022-09-09T01:20:36;15.20;99.90
9998;DHT22;5038;53.064;8.624;2022-09-09T01:23:20;15.20;99.90
9998;DHT22;5038;53.064;8.624;2022-09-09T01:26:21;15.20;99.90
9998;DHT22;5038;53.064;8.624;2022-09-09T01:28:52;15.20;99.90
9998;DHT22;5038;53.064;8.624;2022-09-09T01:31:35;15.10;99.90
9998;DHT22;5038;53.064;8.624;2022-09-09T01:34:09;15.10;99.90
9998;DHT22;5038;53.064;8.624;2022-09-09T01:36:42;15.10;99.90
9998;DHT22;5038;53.064;8.624;2022-09-09T01:39:12;15.10;99.90
9998;DHT22;5038;53.064;8.624;2022-09-09T01:41:43;15.10;99.90
9998;DHT22;5038;53.064;8.624;2022-09-09T01:44:13;15.10;99.90
9998;DHT22;5038;53.064;8.624;2022-09-09T01:46:44;15.10;99.90
9998;DHT22;5038;53.064;8.624;2022-09-09T01:49:18;15.10;99.90
9998;DHT22;5038;53.064;8.624;2022-09-09T01:51:49;15.10;99.90
9998;DHT22;5038;53.064;8.624;2022-09-09T01:54:21;15.10;99.90
9998;DHT22;5038;53.064;8.624;2022-09-09T01:57:08;15.00;99.90
9998;DHT22;5038;53.064;8.624;2022-09-09T01:59:51;15.10;99.90
9998;DHT22;5038;53.064;8.624;2022-09-09T02:02:24;15.00;99.90
9998;DHT22;5038;53.064;8.624;2022-09-09T02:05:13;15.00;99.90
9998;DHT22;5038;53.064;8.624;2022-09-09T02:07:47;15.00;99.90
9998;DHT22;5038;53.064;8.624;2022-09-09T02:10:32;15.00;99.90
9998;DHT22;5038;53.064;8.624;2022-09-09T02:13:18;15.00;99.90
9998;DHT22;5038;53.064;8.624;2022-09-09T02:15:52;14.90;99.90
9998;DHT22;5038;53.064;8.624;2022-09-09T02:18:25;14.90;99.90
9998;DHT22;5038;53.064;8.624;2022-09-09T02:20:56;14.90;99.90
9998;DHT22;5038;53.064;8.624;2022-09-09T02:23:25;14.90;99.90
9998;DHT22;5038;53.064;8.624;2022-09-09T02:25:56;14.90;99.90
9998;DHT22;5038;53.064;8.624;2022-09-09T02:28:29;14.90;99.90
9998;DHT22;5038;53.064;8.624;2022-09-09T02:31:00;14.90;99.90
9998;DHT22;5038;53.064;8.624;2022-09-09T02:33:38;14.80;99.90
9998;DHT22;5038;53.064;8.624;2022-09-09T02:36:08;14.80;99.90
9998;DHT22;5038;53.064;8.624;2022-09-09T02:38:42;14.80;99.90
9998;DHT22;5038;53.064;8.624;2022-09-09T02:41:15;14.80;99.90
9998;DHT22;5038;53.064;8.624;2022-09-09T02:43:45;14.80;99.90
9998;DHT22;5038;53.064;8.624;2022-09-09T02:46:25;14.70;99.90
9998;DHT22;5038;53.064;8.624;2022-09-09T02:49:02;14.70;99.90
9998;DHT22;5038;53.064;8.624;2022-09-09T02:51:42;14.70;99.90
9998;DHT22;5038;53.064;8.624;2022-09-09T02:54:20;14.70;99.90
9998;DHT22;5038;53.064;8.624;2022-09-09T02:56:53;14.70;99.90
9998;DHT22;5038;53.064;8.624;2022-09-09T02:59:32;14.70;99.90
9998;DHT22;5038;53.064;8.624;2022-09-09T03:02:00;14.60;99.90
9998;DHT22;5038;53.064;8.624;2022-09-09T03:04:30;14.60;99.90
9998;DHT22;5038;53.064;8.624;2022-09-09T03:06:59;14.60;99.90
9998;DHT22;5038;53.064;8.624;2022-09-09T03:09:27;14.60;99.90
9998;DHT22;5038;53.064;8.624;2022-09-09T03:11:55;14.60;99.90
9998;DHT22;5038;53.064;8.624;2022-09-09T03:14:25;14.60;99.90
9998;DHT22;5038;53.064;8.624;2022-09-09T03:16:56;14.50;99.90
9998;DHT22;5038;53.064;8.624;2022-09-09T03:19:29;14.50;99.90
9998;DHT22;5038;53.064;8.624;2022-09-09T03:21:59;14.50;99.90
9998;DHT22;5038;53.064;8.624;2022-09-09T03:24:29;14.50;99.90
9998;DHT22;5038;53.064;8.624;2022-09-09T03:26:57;14.50;99.90
9998;DHT22;5038;53.064;8.624;2022-09-09T03:29:26;14.50;99.90
9998;DHT22;5038;53.064;8.624;2022-09-09T03:31:58;14.50;99.90
9998;DHT22;5038;53.064;8.624;2022-09-09T03:34:27;14.50;99.90
9998;DHT22;5038;53.064;8.624;2022-09-09T03:36:57;14.50;99.90
9998;DHT22;5038;53.064;8.624;2022-09-09T03:39:27;14.50;99.90
9998;DHT22;5038;53.064;8.624;2022-09-09T03:41:56;14.50;99.90
9998;DHT22;5038;53.064;8.624;2022-09-09T03:44:24;14.50;99.90
9998;DHT22;5038;53.064;8.624;2022-09-09T03:46:54;14.50;99.90
9998;DHT22;5038;53.064;8.624;2022-09-09T03:49:24;14.60;99.90
9998;DHT22;5038;53.064;8.624;2022-09-09T03:51:54;14.60;99.90
9998;DHT22;5038;53.064;8.624;2022-09-09T03:54:23;14.60;99.90
9998;DHT22;5038;53.064;8.624;2022-09-09T03:56:51;14.60;99.90
9998;DHT22;5038;53.064;8.624;2022-09-09T03:59:22;14.60;99.90
9998;DHT22;5038;53.064;8.624;2022-09-09T04:01:50;14.60;99.90
9998;DHT22;5038;53.064;8.624;2022-09-09T04:04:19;14.60;99.90
9998;DHT22;5038;53.064;8.624;2022-09-09T04:06:48;14.60;99.90
9998;DHT22;5038;53.064;8.624;2022-09-09T04:09:17;14.60;99.90
9998;DHT22;5038;53.064;8.624;2022-09-09T04:11:47;14.60;99.90
9998;DHT22;5038;53.064;8.624;2022-09-09T04:14:16;14.60;99.90
9998;DHT22;5038;53.064;8.624;2022-09-09T04:16:44;14.60;99.90
9998;DHT22;5038;53.064;8.624;2022-09-09T04:19:13;14.60;99.90
9998;DHT22;5038;53.064;8.624;2022-09-09T04:21:43;14.60;99.90
9998;DHT22;5038;53.064;8.624;2022-09-09T04:24:13;14.60;99.90
9998;DHT22;5038;53.064;8.624;2022-09-09T04:26:43;14.60;99.90
9998;DHT22;5038;53.064;8.624;2022-09-09T04:29:12;14.60;99.90
9998;DHT22;5038;53.064;8.624;2022-09-09T04:31:41;14.70;99.90
9998;DHT22;5038;53.064;8.624;2022-09-09T04:34:10;14.60;99.90
9998;DHT22;5038;53.064;8.624;2022-09-09T04:36:38;14.60;99.90
9998;DHT22;5038;53.064;8.624;2022-09-09T04:39:08;14.70;99.90
9998;DHT22;5038;53.064;8.624;2022-09-09T04:41:37;14.70;99.90
9998;DHT22;5038;53.064;8.624;2022-09-09T04:44:06;14.70;99.90
9998;DHT22;5038;53.064;8.624;2022-09-09T04:46:34;14.70;99.90
9998;DHT22;5038;53.064;8.624;2022-09-09T04:49:03;14.70;99.90
9998;DHT22;5038;53.064;8.624;2022-09-09T04:51:33;14.70;99.90
9998;DHT22;5038;53.064;8.624;2022-09-09T04:54:01;14.70;99.90
9998;DHT22;5038;53.064;8.624;2022-09-09T04:56:30;14.70;99.90
9998;DHT22;5038;53.064;8.624;2022-09-09T04:59:01;14.60;99.90
9998;DHT22;5038;53.064;8.624;2022-09-09T05:01:40;14.70;99.90
9998;DHT22;5038;53.064;8.624;2022-09-09T05:04:08;14.70;99.90
9998;DHT22;5038;53.064;8.624;2022-09-09T05:06:37;14.60;99.90
9998;DHT22;5038;53.064;8.624;2022-09-09T05:09:05;14.60;99.90
9998;DHT22;5038;53.064;8.624;2022-09-09T05:11:33;14.60;99.90
9998;DHT22;5038;53.064;8.624;2022-09-09T05:14:17;14.60;99.90
9998;DHT22;5038;53.064;8.624;2022-09-09T05:16:45;14.60;99.90
9998;DHT22;5038;53.064;8.624;2022-09-09T05:19:14;14.60;99.90
9998;DHT22;5038;53.064;8.624;2022-09-09T05:21:49;14.60;99.90
9998;DHT22;5038;53.064;8.624;2022-09-09T05:24:22;14.60;99.90
9998;DHT22;5038;53.064;8.624;2022-09-09T05:26:54;14.60;99.90
9998;DHT22;5038;53.064;8.624;2022-09-09T05:29:26;14.60;99.90
9998;DHT22;5038;53.064;8.624;2022-09-09T05:31:55;14.60;99.90
9998;DHT22;5038;53.064;8.624;2022-09-09T05:34:24;14.60;99.90
9998;DHT22;5038;53.064;8.624;2022-09-09T05:36:52;14.60;99.90
9998;DHT22;5038;53.064;8.624;2022-09-09T05:39:23;14.60;99.90
9998;DHT22;5038;53.064;8.624;2022-09-09T05:41:51;14.70;99.90
9998;DHT22;5038;53.064;8.624;2022-09-09T05:44:19;14.60;99.90
9998;DHT22;5038;53.064;8.624;2022-09-09T05:46:51;14.70;99.90
9998;DHT22;5038;53.064;8.624;2022-09-09T05:49:21;14.70;99.90
9998;DHT22;5038;53.064;8.624;2022-09-09T05:51:50;14.70;99.90
9998;DHT22;5038;53.064;8.624;2022-09-09T05:54:20;14.70;99.90
9998;DHT22;5038;53.064;8.624;2022-09-09T05:56:50;14.70;99.90
9998;DHT22;5038;53.064;8.624;2022-09-09T05:59:20;14.80;99.90
9998;DHT22;5038;53.064;8.624;2022-09-09T06:01:53;14.80;99.90
9998;DHT22;5038;53.064;8.624;2022-09-09T06:04:30;14.80;99.90
9998;DHT22;5038;53.064;8.624;2022-09-09T06:07:00;14.90;99.90
9998;DHT22;5038;53.064;8.624;2022-09-09T06:09:28;14.90;99.90
9998;DHT22;5038;53.064;8.624;2022-09-09T06:11:57;15.00;99.90
9998;DHT22;5038;53.064;8.624;2022-09-09T06:14:26;15.20;99.90
9998;DHT22;5038;53.064;8.624;2022-09-09T06:16:59;15.30;99.90
9998;DHT22;5038;53.064;8.624;2022-09-09T06:19:29;15.50;99.90
9998;DHT22;5038;53.064;8.624;2022-09-09T06:21:58;15.50;99.90
9998;DHT22;5038;53.064;8.624;2022-09-09T06:24:29;15.60;99.90
9998;DHT22;5038;53.064;8.624;2022-09-09T06:27:01;15.60;99.90
9998;DHT22;5038;53.064;8.624;2022-09-09T06:29:33;15.60;99.90
9998;DHT22;5038;53.064;8.624;2022-09-09T06:32:03;15.60;99.90
9998;DHT22;5038;53.064;8.624;2022-09-09T06:34:31;15.80;99.90
9998;DHT22;5038;53.064;8.624;2022-09-09T06:37:00;16.00;99.90
9998;DHT22;5038;53.064;8.624;2022-09-09T06:39:37;16.10;99.90
9998;DHT22;5038;53.064;8.624;2022-09-09T06:42:05;16.20;99.90
9998;DHT22;5038;53.064;8.624;2022-09-09T06:44:54;16.30;99.90
9998;DHT22;5038;53.064;8.624;2022-09-09T06:47:44;16.50;99.90
9998;DHT22;5038;53.064;8.624;2022-09-09T06:50:13;16.60;99.90
9998;DHT22;5038;53.064;8.624;2022-09-09T06:52:42;16.80;99.90
9998;DHT22;5038;53.064;8.624;2022-09-09T06:55:10;16.90;99.90
9998;DHT22;5038;53.064;8.624;2022-09-09T06:57:40;17.10;99.90
9998;DHT22;5038;53.064;8.624;2022-09-09T07:00:13;17.30;99.90
9998;DHT22;5038;53.064;8.624;2022-09-09T07:02:42;17.30;99.90
9998;DHT22;5038;53.064;8.624;2022-09-09T07:05:14;17.30;99.90
9998;DHT22;5038;53.064;8.624;2022-09-09T07:07:44;17.30;99.90
9998;DHT22;5038;53.064;8.624;2022-09-09T07:10:15;17.30;99.90
9998;DHT22;5038;53.064;8.624;2022-09-09T07:12:44;17.20;99.90
9998;DHT22;5038;53.064;8.624;2022-09-09T07:15:19;17.20;99.90
9998;DHT22;5038;53.064;8.624;2022-09-09T07:17:49;17.10;99.90
9998;DHT22;5038;53.064;8.624;2022-09-09T07:20:18;17.10;99.90
9998;DHT22;5038;53.064;8.624;2022-09-09T07:22:47;17.20;99.90
9998;DHT22;5038;53.064;8.624;2022-09-09T07:25:15;17.20;99.90
9998;DHT22;5038;53.064;8.624;2022-09-09T07:27:46;17.10;99.90
9998;DHT22;5038;53.064;8.624;2022-09-09T07:30:14;17.10;99.90
9998;DHT22;5038;53.064;8.624;2022-09-09T07:32:51;17.10;99.90
9998;DHT22;5038;53.064;8.624;2022-09-09T07:35:21;17.10;99.90
9998;DHT22;5038;53.064;8.624;2022-09-09T07:37:49;17.20;99.90
9998;DHT22;5038;53.064;8.624;2022-09-09T07:40:19;17.20;99.90
9998;DHT22;5038;53.064;8.624;2022-09-09T07:42:49;17.30;99.90
9998;DHT22;5038;53.064;8.624;2022-09-09T07:45:17;17.40;99.90
9998;DHT22;5038;53.064;8.624;2022-09-09T07:47:46;17.50;99.90
9998;DHT22;5038;53.064;8.624;2022-09-09T07:50:15;17.60;99.90
9998;DHT22;5038;53.064;8.624;2022-09-09T07:52:45;17.70;99.90
9998;DHT22;5038;53.064;8.624;2022-09-09T07:55:14;17.90;99.90
9998;DHT22;5038;53.064;8.624;2022-09-09T07:57:42;18.00;99.90
9998;DHT22;5038;53.064;8.624;2022-09-09T08:00:12;18.20;99.90
9998;DHT22;5038;53.064;8.624;2022-09-09T08:02:47;18.30;99.90
9998;DHT22;5038;53.064;8.624;2022-09-09T08:05:15;18.30;99.90
9998;DHT22;5038;53.064;8.624;2022-09-09T08:07:46;18.30;99.90
9998;DHT22;5038;53.064;8.624;2022-09-09T08:10:15;18.40;99.90
9998;DHT22;5038;53.064;8.624;2022-09-09T08:12:45;18.40;99.90
9998;DHT22;5038;53.064;8.624;2022-09-09T08:15:33;18.40;99.90
9998;DHT22;5038;53.064;8.624;2022-09-09T08:18:04;18.30;99.90
9998;DHT22;5038;53.064;8.624;2022-09-09T08:20:33;18.30;99.90
9998;DHT22;5038;53.064;8.624;2022-09-09T08:23:04;18.30;99.90
9998;DHT22;5038;53.064;8.624;2022-09-09T08:25:34;18.30;99.90
9998;DHT22;5038;53.064;8.624;2022-09-09T08:28:02;18.20;99.90
9998;DHT22;5038;53.064;8.624;2022-09-09T08:30:31;18.20;99.90
9998;DHT22;5038;53.064;8.624;2022-09-09T08:32:59;18.30;99.90
9998;DHT22;5038;53.064;8.624;2022-09-09T08:35:28;18.40;99.90
9998;DHT22;5038;53.064;8.624;2022-09-09T08:37:59;18.50;99.90
9998;DHT22;5038;53.064;8.624;2022-09-09T08:40:37;18.60;99.90
9998;DHT22;5038;53.064;8.624;2022-09-09T08:43:10;18.70;99.90
9998;DHT22;5038;53.064;8.624;2022-09-09T08:45:50;18.70;99.90
9998;DHT22;5038;53.064;8.624;2022-09-09T08:48:39;18.80;99.90
9998;DHT22;5038;53.064;8.624;2022-09-09T08:51:12;18.90;99.90
9998;DHT22;5038;53.064;8.624;2022-09-09T08:53:46;18.90;99.90
9998;DHT22;5038;53.064;8.624;2022-09-09T08:56:19;18.90;99.90
9998;DHT22;5038;53.064;8.624;2022-09-09T08:58:53;19.00;99.90
9998;DHT22;5038;53.064;8.624;2022-09-09T09:01:51;19.00;99.90
9998;DHT22;5038;53.064;8.624;2022-09-09T09:04:48;19.00;99.90
9998;DHT22;5038;53.064;8.624;2022-09-09T09:07:31;19.10;99.90
9998;DHT22;5038;53.064;8.624;2022-09-09T09:10:10;19.20;99.90
9998;DHT22;5038;53.064;8.624;2022-09-09T09:13:03;19.40;99.90
9998;DHT22;5038;53.064;8.624;2022-09-09T09:15:36;19.50;99.90
9998;DHT22;5038;53.064;8.624;2022-09-09T09:18:10;19.70;99.90
9998;DHT22;5038;53.064;8.624;2022-09-09T09:20:53;19.80;99.90
9998;DHT22;5038;53.064;8.624;2022-09-09T09:23:26;19.90;99.90
9998;DHT22;5038;53.064;8.624;2022-09-09T09:26:00;20.10;99.90
9998;DHT22;5038;53.064;8.624;2022-09-09T09:28:32;20.20;99.90
9998;DHT22;5038;53.064;8.624;2022-09-09T09:31:10;20.30;99.90
9998;DHT22;5038;53.064;8.624;2022-09-09T09:33:47;20.30;99.90
9998;DHT22;5038;53.064;8.624;2022-09-09T09:36:18;20.40;99.90
9998;DHT22;5038;53.064;8.624;2022-09-09T09:38:55;20.50;99.90
9998;DHT22;5038;53.064;8.624;2022-09-09T09:41:45;20.50;99.90
9998;DHT22;5038;53.064;8.624;2022-09-09T09:44:25;20.50;99.90
9998;DHT22;5038;53.064;8.624;2022-09-09T09:47:06;20.50;99.90
9998;DHT22;5038;53.064;8.624;2022-09-09T09:49:36;20.60;99.90
9998;DHT22;5038;53.064;8.624;2022-09-09T09:52:05;20.50;99.90
9998;DHT22;5038;53.064;8.624;2022-09-09T09:54:38;20.60;99.90
9998;DHT22;5038;53.064;8.624;2022-09-09T09:57:09;20.60;99.90
9998;DHT22;5038;53.064;8.624;2022-09-09T09:59:40;20.70;99.90
9998;DHT22;5038;53.064;8.624;2022-09-09T10:02:25;20.80;99.90
9998;DHT22;5038;53.064;8.624;2022-09-09T10:05:04;20.90;99.90
9998;DHT22;5038;53.064;8.624;2022-09-09T10:07:35;20.90;99.90
9998;DHT22;5038;53.064;8.624;2022-09-09T10:10:05;20.90;99.90
9998;DHT22;5038;53.064;8.624;2022-09-09T10:12:42;21.00;99.90
9998;DHT22;5038;53.064;8.624;2022-09-09T10:15:26;21.10;99.90
9998;DHT22;5038;53.064;8.624;2022-09-09T10:18:08;21.10;99.90
9998;DHT22;5038;53.064;8.624;2022-09-09T10:20:48;21.20;99.90
9998;DHT22;5038;53.064;8.624;2022-09-09T10:23:29;21.20;99.90
9998;DHT22;5038;53.064;8.624;2022-09-09T10:26:12;21.20;99.90
9998;DHT22;5038;53.064;8.624;2022-09-09T10:28:57;21.10;99.90
9998;DHT22;5038;53.064;8.624;2022-09-09T10:31:36;21.10;99.90
9998;DHT22;5038;53.064;8.624;2022-09-09T10:34:19;21.10;99.90
9998;DHT22;5038;53.064;8.624;2022-09-09T10:36:49;21.20;99.90
9998;DHT22;5038;53.064;8.624;2022-09-09T10:39:35;21.20;99.90
9998;DHT22;5038;53.064;8.624;2022-09-09T10:42:11;21.10;99.90
9998;DHT22;5038;53.064;8.624;2022-09-09T10:44:56;21.10;99.90
9998;DHT22;5038;53.064;8.624;2022-09-09T10:50:40;21.10;99.90
9998;DHT22;5038;53.064;8.624;2022-09-09T10:53:39;21.10;99.90
9998;DHT22;5038;53.064;8.624;2022-09-09T10:56:16;21.10;99.90
9998;DHT22;5038;53.064;8.624;2022-09-09T10:58:49;21.10;99.90
9998;DHT22;5038;53.064;8.624;2022-09-09T11:01:22;21.10;99.90
9998;DHT22;5038;53.064;8.624;2022-09-09T11:03:56;21.10;99.90
9998;DHT22;5038;53.064;8.624;2022-09-09T11:06:30;21.10;99.90
9998;DHT22;5038;53.064;8.624;2022-09-09T11:09:01;21.20;99.90
9998;DHT22;5038;53.064;8.624;2022-09-09T11:11:34;21.30;99.90
9998;DHT22;5038;53.064;8.624;2022-09-09T11:14:11;21.30;99.90
9998;DHT22;5038;53.064;8.624;2022-09-09T11:16:42;21.30;99.90
9998;DHT22;5038;53.064;8.624;2022-09-09T11:19:21;21.40;99.90
9998;DHT22;5038;53.064;8.624;2022-09-09T11:21:53;21.40;99.90
9998;DHT22;5038;53.064;8.624;2022-09-09T11:24:25;21.30;99.90
9998;DHT22;5038;53.064;8.624;2022-09-09T11:26:58;21.30;99.90
9998;DHT22;5038;53.064;8.624;2022-09-09T11:29:57;21.30;99.90
9998;DHT22;5038;53.064;8.624;2022-09-09T11:35:42;21.20;99.90
9998;DHT22;5038;53.064;8.624;2022-09-09T11:38:19;21.20;99.90
9998;DHT22;5038;53.064;8.624;2022-09-09T11:40:56;21.10;99.90
9998;DHT22;5038;53.064;8.624;2022-09-09T11:43:29;21.10;99.90
9998;DHT22;5038;53.064;8.624;2022-09-09T11:46:01;21.10;99.90
9998;DHT22;5038;53.064;8.624;2022-09-09T11:48:33;21.10;99.90
9998;DHT22;5038;53.064;8.624;2022-09-09T11:51:06;21.10;99.90
9998;DHT22;5038;53.064;8.624;2022-09-09T11:53:50;21.00;99.90
9998;DHT22;5038;53.064;8.624;2022-09-09T11:56:29;21.00;99.90
9998;DHT22;5038;53.064;8.624;2022-09-09T11:59:01;21.00;99.90
9998;DHT22;5038;53.064;8.624;2022-09-09T12:01:34;20.90;99.90
9998;DHT22;5038;53.064;8.624;2022-09-09T12:07:25;20.80;99.90
9998;DHT22;5038;53.064;8.624;2022-09-09T12:09:57;20.70;99.90
9998;DHT22;5038;53.064;8.624;2022-09-09T12:12:29;20.60;99.90
9998;DHT22;5038;53.064;8.624;2022-09-09T12:15:19;20.50;99.90
9998;DHT22;5038;53.064;8.624;2022-09-09T12:17:50;20.50;99.90
9998;DHT22;5038;53.064;8.624;2022-09-09T12:20:20;20.40;99.90
9998;DHT22;5038;53.064;8.624;2022-09-09T12:23:05;20.30;99.90
9998;DHT22;5038;53.064;8.624;2022-09-09T12:25:54;20.20;99.90
9998;DHT22;5038;53.064;8.624;2022-09-09T12:28:31;20.20;99.90
9998;DHT22;5038;53.064;8.624;2022-09-09T12:31:12;20.10;99.90
9998;DHT22;5038;53.064;8.624;2022-09-09T12:33:46;20.10;99.90
9998;DHT22;5038;53.064;8.624;2022-09-09T12:36:17;20.10;99.90
9998;DHT22;5038;53.064;8.624;2022-09-09T12:38:48;20.10;99.90
9998;DHT22;5038;53.064;8.624;2022-09-09T12:41:21;20.10;99.90
9998;DHT22;5038;53.064;8.624;2022-09-09T12:43:51;20.10;99.90
9998;DHT22;5038;53.064;8.624;2022-09-09T12:46:29;20.10;99.90
9998;DHT22;5038;53.064;8.624;2022-09-09T12:49:00;20.10;99.90
9998;DHT22;5038;53.064;8.624;2022-09-09T12:51:31;20.10;99.90
9998;DHT22;5038;53.064;8.624;2022-09-09T12:54:01;20.10;99.90
9998;DHT22;5038;53.064;8.624;2022-09-09T12:56:31;20.10;99.90
9998;DHT22;5038;53.064;8.624;2022-09-09T12:59:00;20.10;99.90
9998;DHT22;5038;53.064;8.624;2022-09-09T13:01:30;20.10;99.90
9998;DHT22;5038;53.064;8.624;2022-09-09T13:03:59;20.10;99.90
9998;DHT22;5038;53.064;8.624;2022-09-09T13:06:29;20.20;99.90
9998;DHT22;5038;53.064;8.624;2022-09-09T13:09:01;20.20;99.90
9998;DHT22;5038;53.064;8.624;2022-09-09T13:11:34;20.20;99.90
9998;DHT22;5038;53.064;8.624;2022-09-09T13:14:05;20.20;99.90
9998;DHT22;5038;53.064;8.624;2022-09-09T13:16:35;20.20;99.90
9998;DHT22;5038;53.064;8.624;2022-09-09T13:19:14;20.20;99.90
9998;DHT22;5038;53.064;8.624;2022-09-09T13:21:43;20.20;99.90
9998;DHT22;5038;53.064;8.624;2022-09-09T13:24:27;20.10;99.90
9998;DHT22;5038;53.064;8.624;2022-09-09T13:26:57;20.10;99.90
9998;DHT22;5038;53.064;8.624;2022-09-09T13:29:26;20.00;99.90
9998;DHT22;5038;53.064;8.624;2022-09-09T13:32:03;20.00;99.90
9998;DHT22;5038;53.064;8.624;2022-09-09T13:34:34;20.00;99.90
9998;DHT22;5038;53.064;8.624;2022-09-09T13:37:05;20.00;99.90
9998;DHT22;5038;53.064;8.624;2022-09-09T13:39:36;19.90;99.90
9998;DHT22;5038;53.064;8.624;2022-09-09T13:42:05;19.90;99.90
9998;DHT22;5038;53.064;8.624;2022-09-09T13:44:35;19.90;99.90
9998;DHT22;5038;53.064;8.624;2022-09-09T13:47:06;19.90;99.90
9998;DHT22;5038;53.064;8.624;2022-09-09T13:49:44;19.80;99.90
9998;DHT22;5038;53.064;8.624;2022-09-09T13:52:13;19.80;99.90
9998;DHT22;5038;53.064;8.624;2022-09-09T13:54:47;19.70;99.90
9998;DHT22;5038;53.064;8.624;2022-09-09T13:57:17;19.70;99.90
9998;DHT22;5038;53.064;8.624;2022-09-09T13:59:45;19.60;99.90
9998;DHT22;5038;53.064;8.624;2022-09-09T14:02:30;19.60;99.90
9998;DHT22;5038;53.064;8.624;2022-09-09T14:04:59;19.50;99.90
9998;DHT22;5038;53.064;8.624;2022-09-09T14:07:27;19.50;99.90
9998;DHT22;5038;53.064;8.624;2022-09-09T14:09:57;19.50;99.90
9998;DHT22;5038;53.064;8.624;2022-09-09T14:12:27;19.40;99.90
9998;DHT22;5038;53.064;8.624;2022-09-09T14:14:55;19.40;99.90
9998;DHT22;5038;53.064;8.624;2022-09-09T14:17:23;19.30;99.90
9998;DHT22;5038;53.064;8.624;2022-09-09T14:19:51;19.20;99.90
9998;DHT22;5038;53.064;8.624;2022-09-09T14:22:20;19.20;99.90
9998;DHT22;5038;53.064;8.624;2022-09-09T14:24:48;19.10;99.90
9998;DHT22;5038;53.064;8.624;2022-09-09T14:27:18;19.10;99.90
9998;DHT22;5038;53.064;8.624;2022-09-09T14:29:46;19.00;99.90
9998;DHT22;5038;53.064;8.624;2022-09-09T14:32:14;19.00;99.90
9998;DHT22;5038;53.064;8.624;2022-09-09T14:34:42;18.90;99.90
9998;DHT22;5038;53.064;8.624;2022-09-09T14:37:11;18.90;99.90
9998;DHT22;5038;53.064;8.624;2022-09-09T14:39:39;18.90;99.90
9998;DHT22;5038;53.064;8.624;2022-09-09T14:42:07;18.80;99.90
9998;DHT22;5038;53.064;8.624;2022-09-09T14:44:39;18.80;99.90
9998;DHT22;5038;53.064;8.624;2022-09-09T14:47:08;18.70;99.90
9998;DHT22;5038;53.064;8.624;2022-09-09T14:49:37;18.70;99.90
9998;DHT22;5038;53.064;8.624;2022-09-09T14:52:09;18.70;99.90
9998;DHT22;5038;53.064;8.624;2022-09-09T14:54:38;18.60;99.90
9998;DHT22;5038;53.064;8.624;2022-09-09T14:57:07;18.60;99.90
9998;DHT22;5038;53.064;8.624;2022-09-09T14:59:35;18.50;99.90
9998;DHT22;5038;53.064;8.624;2022-09-09T15:02:04;18.50;99.90
9998;DHT22;5038;53.064;8.624;2022-09-09T15:04:33;18.50;99.90
9998;DHT22;5038;53.064;8.624;2022-09-09T15:07:01;18.50;99.90
9998;DHT22;5038;53.064;8.624;2022-09-09T15:09:29;18.40;99.90
9998;DHT22;5038;53.064;8.624;2022-09-09T15:11:57;18.50;99.90
9998;DHT22;5038;53.064;8.624;2022-09-09T15:14:26;18.40;99.90
9998;DHT22;5038;53.064;8.624;2022-09-09T15:16:54;18.40;99.90
9998;DHT22;5038;53.064;8.624;2022-09-09T15:19:24;18.40;99.90
9998;DHT22;5038;53.064;8.624;2022-09-09T15:21:52;18.50;99.90
9998;DHT22;5038;53.064;8.624;2022-09-09T15:24:21;18.50;99.90
9998;DHT22;5038;53.064;8.624;2022-09-09T15:26:49;18.50;99.90
9998;DHT22;5038;53.064;8.624;2022-09-09T15:29:18;18.50;99.90
9998;DHT22;5038;53.064;8.624;2022-09-09T15:31:46;18.50;99.90
9998;DHT22;5038;53.064;8.624;2022-09-09T15:34:14;18.50;99.90
9998;DHT22;5038;53.064;8.624;2022-09-09T15:36:45;18.50;99.90
9998;DHT22;5038;53.064;8.624;2022-09-09T15:39:15;18.50;99.90
9998;DHT22;5038;53.064;8.624;2022-09-09T15:41:44;18.50;99.90
9998;DHT22;5038;53.064;8.624;2022-09-09T15:44:14;18.50;99.90
9998;DHT22;5038;53.064;8.624;2022-09-09T15:46:44;18.50;99.90
9998;DHT22;5038;53.064;8.624;2022-09-09T15:49:13;18.50;99.90
9998;DHT22;5038;53.064;8.624;2022-09-09T15:51:45;18.50;99.90
9998;DHT22;5038;53.064;8.624;2022-09-09T15:54:15;18.50;99.90
9998;DHT22;5038;53.064;8.624;2022-09-09T15:56:45;18.50;99.90
9998;DHT22;5038;53.064;8.624;2022-09-09T15:59:15;18.50;99.90
9998;DHT22;5038;53.064;8.624;2022-09-09T16:01:43;18.50;99.90
9998;DHT22;5038;53.064;8.624;2022-09-09T16:04:12;18.50;99.90
9998;DHT22;5038;53.064;8.624;2022-09-09T16:06:42;18.50;99.90
9998;DHT22;5038;53.064;8.624;2022-09-09T16:09:12;18.50;99.90
9998;DHT22;5038;53.064;8.624;2022-09-09T16:11:40;18.40;99.90
9998;DHT22;5038;53.064;8.624;2022-09-09T16:14:09;18.40;99.90
9998;DHT22;5038;53.064;8.624;2022-09-09T16:16:38;18.40;99.90
9998;DHT22;5038;53.064;8.624;2022-09-09T16:19:07;18.40;99.90
9998;DHT22;5038;53.064;8.624;2022-09-09T16:21:38;18.40;99.90
9998;DHT22;5038;53.064;8.624;2022-09-09T16:24:09;18.40;99.90
9998;DHT22;5038;53.064;8.624;2022-09-09T16:26:43;18.40;99.90
9998;DHT22;5038;53.064;8.624;2022-09-09T16:29:12;18.40;99.90
9998;DHT22;5038;53.064;8.624;2022-09-09T16:31:41;18.40;99.90
9998;DHT22;5038;53.064;8.624;2022-09-09T16:34:10;18.40;99.90
9998;DHT22;5038;53.064;8.624;2022-09-09T16:36:39;18.40;99.90
9998;DHT22;5038;53.064;8.624;2022-09-09T16:39:10;18.40;99.90
9998;DHT22;5038;53.064;8.624;2022-09-09T16:41:41;18.40;99.90
9998;DHT22;5038;53.064;8.624;2022-09-09T16:44:12;18.40;99.90
9998;DHT22;5038;53.064;8.624;2022-09-09T16:46:41;18.40;99.90